Time;durP1;ratioP1;P1;durP2;ratioP2;P2;SDS_P1;SDS_P2;PMS_P1;PMS_P2;Temp;Humidity;BMP_temperature;BMP_pressure;BME280_temperature;BME280_humidity;BME280_pressure;Samples;Min_cycle;Max_cycle;Signal;HPM_P1;HPM_P2
2022/12/02 00:01:57;;;;;;;58.80;28.42;;;8.10;73.30;;;;;;5034397;28;20074;-63
2022/12/02 00:04:27;;;;;;;57.13;28.88;;;8.10;73.20;;;;;;5032429;28;20397;-64
2022/12/02 00:06:56;;;;;;;55.95;27.95;;;8.10;73.10;;;;;;5033922;28;20116;-63
2022/12/02 00:09:27;;;;;;;52.53;27.23;;;8.10;73.00;;;;;;5034293;28;20017;-63
2022/12/02 00:11:53;;;;;;;54.90;26.52;;;8.10;72.80;;;;;;5044129;28;20060;-63
2022/12/02 00:14:26;;;;;;;53.53;27.63;;;8.10;72.90;;;;;;5032503;28;20049;-63
2022/12/02 00:16:51;;;;;;;47.28;25.23;;;8.10;72.80;;;;;;5034215;28;20102;-64
2022/12/02 00:19:18;;;;;;;50.80;25.67;;;8.10;72.70;;;;;;5033491;28;20049;-64
2022/12/02 00:21:44;;;;;;;50.05;26.08;;;8.00;72.50;;;;;;5034876;28;20461;-63
2022/12/02 00:24:09;;;;;;;53.95;27.50;;;8.00;72.50;;;;;;5031881;28;21180;-63
2022/12/02 00:26:35;;;;;;;50.70;26.45;;;8.00;72.40;;;;;;5034337;28;20037;-64
2022/12/02 00:29:01;;;;;;;51.40;27.17;;;8.00;72.40;;;;;;5033954;28;20017;-63
2022/12/02 00:31:27;;;;;;;45.08;24.90;;;8.00;72.30;;;;;;5031527;28;20068;-63
2022/12/02 00:33:53;;;;;;;49.53;25.90;;;8.00;72.10;;;;;;5034563;28;20025;-63
2022/12/02 00:36:19;;;;;;;46.40;25.25;;;8.00;72.00;;;;;;5032303;28;20136;-65
2022/12/02 00:38:44;;;;;;;48.13;25.88;;;8.00;71.90;;;;;;5031194;28;20557;-63
2022/12/02 00:41:10;;;;;;;48.22;24.77;;;8.00;71.80;;;;;;5033920;28;20029;-64
2022/12/02 00:46:33;;;;;;;46.50;25.13;;;8.00;71.60;;;;;;5031311;28;20116;-64
2022/12/02 00:49:26;;;;;;;48.28;24.27;;;8.00;71.60;;;;;;5042072;28;20488;-63
2022/12/02 00:51:51;;;;;;;50.20;24.73;;;8.00;71.60;;;;;;5031681;28;20093;-64
2022/12/02 00:54:17;;;;;;;48.40;25.65;;;8.00;71.60;;;;;;5032616;28;20060;-63
2022/12/02 00:56:44;;;;;;;47.88;25.48;;;8.00;71.50;;;;;;5034881;28;20021;-64
2022/12/02 00:59:09;;;;;;;44.33;25.08;;;8.00;71.50;;;;;;5034673;28;20373;-64
2022/12/02 01:01:35;;;;;;;46.92;25.15;;;7.90;71.40;;;;;;5034585;28;20393;-64
2022/12/02 01:04:03;;;;;;;46.65;23.98;;;7.90;71.40;;;;;;5033070;28;20140;-63
2022/12/02 01:06:29;;;;;;;46.92;24.52;;;7.90;71.40;;;;;;5028757;28;20115;-63
2022/12/02 01:08:54;;;;;;;47.83;26.17;;;7.90;71.40;;;;;;5017619;28;20025;-64
2022/12/02 01:11:20;;;;;;;49.55;24.17;;;7.90;71.40;;;;;;5035002;28;20029;-63
2022/12/02 01:13:46;;;;;;;48.97;26.15;;;7.90;71.30;;;;;;5034351;28;20028;-63
2022/12/02 01:16:14;;;;;;;50.92;25.65;;;7.90;71.30;;;;;;5033503;28;20052;-64
2022/12/02 01:18:39;;;;;;;46.33;23.98;;;7.90;71.30;;;;;;5035218;28;20470;-63
2022/12/02 01:21:06;;;;;;;48.72;25.13;;;7.90;71.30;;;;;;5033742;28;20072;-63
2022/12/02 01:23:31;;;;;;;50.10;26.35;;;7.90;71.20;;;;;;5050255;28;20073;-63
2022/12/02 01:25:57;;;;;;;54.55;27.70;;;7.90;71.20;;;;;;5033494;28;20075;-63
2022/12/02 01:28:23;;;;;;;52.25;26.92;;;7.90;71.20;;;;;;5050465;28;20033;-64
2022/12/02 01:30:48;;;;;;;49.40;25.98;;;7.90;71.20;;;;;;5033791;28;20027;-63
2022/12/02 01:33:14;;;;;;;45.85;24.20;;;7.80;71.20;;;;;;5033084;28;20135;-63
2022/12/02 01:35:40;;;;;;;51.05;24.25;;;7.80;71.20;;;;;;5018879;28;20032;-64
2022/12/02 01:38:05;;;;;;;49.40;26.10;;;7.80;71.20;;;;;;5032328;28;20052;-64
2022/12/02 01:40:31;;;;;;;53.53;26.80;;;7.80;71.20;;;;;;5034163;28;20040;-63
2022/12/02 01:42:57;;;;;;;46.05;25.50;;;7.80;71.20;;;;;;5032907;28;20021;-63
2022/12/02 01:45:23;;;;;;;49.55;27.02;;;7.80;71.20;;;;;;5034045;28;20032;-64
2022/12/02 01:47:49;;;;;;;47.15;25.25;;;7.80;71.90;;;;;;5033513;28;20032;-64
2022/12/02 01:50:16;;;;;;;46.28;24.00;;;7.80;71.20;;;;;;5033885;28;20458;-64
2022/12/02 01:52:43;;;;;;;47.13;25.42;;;7.80;71.20;;;;;;5041088;28;20036;-63
2022/12/02 01:55:17;;;;;;;50.45;26.40;;;7.80;71.20;;;;;;5033593;28;20354;-63
2022/12/02 01:57:44;;;;;;;47.13;23.73;;;7.80;71.20;;;;;;5049786;28;20025;-63
2022/12/02 02:00:10;;;;;;;47.38;25.88;;;7.80;71.20;;;;;;5033216;28;20362;-63
2022/12/02 02:02:40;;;;;;;47.63;24.90;;;7.80;71.20;;;;;;5034876;28;20112;-64
2022/12/02 02:05:18;;;;;;;45.97;24.77;;;7.80;71.20;;;;;;5046493;28;20095;-63
2022/12/02 02:07:48;;;;;;;49.88;25.70;;;7.80;71.10;;;;;;5031248;28;20041;-64
2022/12/02 02:10:14;;;;;;;48.58;26.20;;;7.80;71.20;;;;;;5049883;28;20071;-64
2022/12/02 02:12:43;;;;;;;48.20;24.05;;;7.80;71.30;;;;;;5032385;28;20013;-64
2022/12/02 02:15:10;;;;;;;45.15;23.23;;;7.80;71.30;;;;;;5032140;28;20032;-64
2022/12/02 02:17:36;;;;;;;49.53;24.98;;;7.80;71.30;;;;;;5032495;28;20682;-63
2022/12/02 02:20:06;;;;;;;44.17;21.88;;;7.80;71.20;;;;;;5048426;28;20054;-63
2022/12/02 02:23:12;;;;;;;45.90;23.55;;;7.80;71.30;;;;;;5032926;28;20029;-65
2022/12/02 02:26:02;;;;;;;45.10;22.83;;;7.80;71.20;;;;;;5048817;28;20052;-64
2022/12/02 02:28:33;;;;;;;49.65;23.08;;;7.70;71.10;;;;;;5023823;28;20022;-63
2022/12/02 02:30:59;;;;;;;44.75;23.63;;;7.70;71.20;;;;;;5047240;28;20014;-64
2022/12/02 02:33:33;;;;;;;51.00;24.48;;;7.70;71.20;;;;;;5025758;28;20025;-64
2022/12/02 02:36:01;;;;;;;45.08;22.92;;;7.70;71.20;;;;;;5027830;28;20120;-63
2022/12/02 02:38:28;;;;;;;47.15;23.20;;;7.70;71.20;;;;;;5027614;28;20018;-63
2022/12/02 02:40:56;;;;;;;51.78;24.23;;;7.70;71.20;;;;;;5027906;28;20572;-63
2022/12/02 02:43:25;;;;;;;44.83;22.38;;;7.60;71.10;;;;;;5032111;28;20030;-63
2022/12/02 02:45:53;;;;;;;49.75;22.42;;;7.60;71.10;;;;;;5031156;28;20053;-63
2022/12/02 02:48:20;;;;;;;44.88;22.23;;;7.60;71.20;;;;;;5046889;28;20037;-63
2022/12/02 02:50:47;;;;;;;43.80;21.17;;;7.60;71.10;;;;;;5031361;28;20091;-63
2022/12/02 02:53:17;;;;;;;41.60;19.23;;;7.60;71.00;;;;;;5018774;28;20116;-63
2022/12/02 02:55:43;;;;;;;43.28;20.60;;;7.60;71.00;;;;;;5047300;28;20398;-63
2022/12/02 02:58:22;;;;;;;39.13;20.00;;;7.60;71.00;;;;;;5031569;28;20026;-64
2022/12/02 03:00:54;;;;;;;43.63;20.55;;;7.60;70.90;;;;;;5032413;28;20056;-63
2022/12/02 03:03:23;;;;;;;40.33;19.23;;;7.50;70.90;;;;;;5031751;28;20044;-63
2022/12/02 03:05:52;;;;;;;39.35;18.90;;;7.50;70.90;;;;;;5032451;28;20116;-63
2022/12/02 03:08:19;;;;;;;37.20;17.52;;;7.60;70.90;;;;;;5033486;28;20037;-63
2022/12/02 03:10:45;;;;;;;39.75;18.13;;;7.50;70.80;;;;;;5032437;28;20037;-63
2022/12/02 03:13:11;;;;;;;42.08;19.90;;;7.50;70.80;;;;;;5033558;28;20037;-64
2022/12/02 03:15:37;;;;;;;40.92;19.40;;;7.50;70.80;;;;;;5032836;28;20037;-63
2022/12/02 03:18:03;;;;;;;42.80;19.23;;;7.50;70.80;;;;;;5033502;28;20034;-64
2022/12/02 03:20:29;;;;;;;36.25;17.73;;;7.50;70.80;;;;;;5032589;28;20064;-64
2022/12/02 03:22:54;;;;;;;38.22;18.02;;;7.50;70.70;;;;;;5033337;28;20518;-63
2022/12/02 03:25:20;;;;;;;37.55;17.73;;;7.50;70.70;;;;;;5032850;28;20038;-64
2022/12/02 03:27:46;;;;;;;36.75;17.60;;;7.50;70.60;;;;;;5034583;28;20037;-64
2022/12/02 03:30:12;;;;;;;41.42;19.00;;;7.50;70.50;;;;;;5036995;28;20044;-64
2022/12/02 03:32:38;;;;;;;40.27;18.23;;;7.50;70.50;;;;;;5036318;28;20025;-64
2022/12/02 03:35:04;;;;;;;40.60;17.88;;;7.50;70.50;;;;;;5035941;28;20024;-64
2022/12/02 03:37:30;;;;;;;39.33;19.27;;;7.50;70.40;;;;;;5052877;28;20040;-63
2022/12/02 03:39:56;;;;;;;34.65;17.33;;;7.50;70.40;;;;;;5036402;28;20366;-63
2022/12/02 03:42:22;;;;;;;40.67;18.20;;;7.50;70.40;;;;;;5037135;28;20079;-63
2022/12/02 03:44:49;;;;;;;39.55;18.00;;;7.50;70.30;;;;;;5032587;28;20033;-63
2022/12/02 03:47:14;;;;;;;35.40;18.15;;;7.50;70.30;;;;;;5035562;28;20107;-64
2022/12/02 03:49:40;;;;;;;36.15;17.42;;;7.50;70.30;;;;;;5036123;28;20422;-64
2022/12/02 03:52:06;;;;;;;35.35;17.02;;;7.50;70.30;;;;;;5036119;28;20061;-63
2022/12/02 03:54:32;;;;;;;38.67;17.70;;;7.50;70.20;;;;;;5035119;28;20098;-64
2022/12/02 03:56:58;;;;;;;38.50;19.20;;;7.50;70.20;;;;;;5044399;28;20037;-64
2022/12/02 03:59:26;;;;;;;38.47;17.98;;;7.50;70.20;;;;;;5037986;28;20125;-64
2022/12/02 04:01:53;;;;;;;37.03;19.27;;;7.50;70.20;;;;;;5028937;28;20037;-64
2022/12/02 04:04:18;;;;;;;36.67;18.05;;;7.50;70.30;;;;;;5036058;28;20316;-63
2022/12/02 04:06:44;;;;;;;41.13;18.65;;;7.50;70.30;;;;;;5030659;28;20067;-63
2022/12/02 04:09:10;;;;;;;40.88;18.58;;;7.50;70.30;;;;;;5031878;28;20022;-63
2022/12/02 04:11:35;;;;;;;38.67;18.75;;;7.50;70.30;;;;;;5031785;28;20022;-64
2022/12/02 04:14:01;;;;;;;37.65;18.02;;;7.40;70.30;;;;;;5035789;28;20056;-64
2022/12/02 04:16:26;;;;;;;40.95;19.23;;;7.40;70.40;;;;;;5043959;28;20022;-64
2022/12/02 04:18:52;;;;;;;34.08;16.20;;;7.40;70.40;;;;;;5043977;28;20033;-64
2022/12/02 04:21:18;;;;;;;38.13;18.17;;;7.40;70.40;;;;;;5042551;28;20053;-64
2022/12/02 04:23:43;;;;;;;33.22;16.42;;;7.40;70.50;;;;;;5048998;28;20029;-63
2022/12/02 04:26:09;;;;;;;36.95;17.02;;;7.40;70.50;;;;;;5034696;28;20028;-64
2022/12/02 04:28:34;;;;;;;34.50;16.90;;;7.40;70.50;;;;;;5036432;28;20061;-63
2022/12/02 04:31:00;;;;;;;32.35;15.73;;;7.40;70.50;;;;;;5039733;28;20355;-64
2022/12/02 04:33:26;;;;;;;32.97;15.00;;;7.40;70.50;;;;;;5054587;28;20049;-64
2022/12/02 04:35:52;;;;;;;31.48;15.25;;;7.40;70.50;;;;;;5045506;28;20051;-64
2022/12/02 04:38:18;;;;;;;32.22;16.88;;;7.30;70.60;;;;;;5050434;28;20044;-64
2022/12/02 04:40:46;;;;;;;32.45;15.68;;;7.30;70.60;;;;;;5044838;28;20034;-64
2022/12/02 04:43:12;;;;;;;35.38;15.48;;;7.30;70.70;;;;;;5034679;28;20103;-63
2022/12/02 04:45:37;;;;;;;28.27;14.15;;;7.30;70.70;;;;;;5041677;28;20059;-64
2022/12/02 04:48:03;;;;;;;27.70;13.95;;;7.30;70.80;;;;;;5051120;28;20055;-63
2022/12/02 04:50:29;;;;;;;30.88;13.93;;;7.30;70.70;;;;;;5045183;28;20032;-63
2022/12/02 04:52:54;;;;;;;30.17;14.50;;;7.30;70.70;;;;;;5038877;28;20033;-63
2022/12/02 04:55:20;;;;;;;29.77;14.35;;;7.30;70.70;;;;;;5035156;28;20041;-64
2022/12/02 04:57:46;;;;;;;28.25;13.18;;;7.30;70.70;;;;;;5035512;28;20037;-64
2022/12/02 05:00:12;;;;;;;29.10;13.68;;;7.30;70.70;;;;;;5035837;28;20060;-63
2022/12/02 05:02:38;;;;;;;24.93;13.50;;;7.30;70.70;;;;;;5035692;28;20036;-63
2022/12/02 05:05:04;;;;;;;27.48;14.45;;;7.30;70.70;;;;;;5037111;28;20033;-63
2022/12/02 05:07:29;;;;;;;27.15;12.43;;;7.30;70.70;;;;;;5037327;28;20022;-64
2022/12/02 05:09:55;;;;;;;28.23;13.75;;;7.30;70.70;;;;;;5035880;28;20380;-64
2022/12/02 05:12:23;;;;;;;26.55;14.18;;;7.30;70.60;;;;;;5033769;28;20435;-64
2022/12/02 05:14:49;;;;;;;30.08;14.98;;;7.20;70.50;;;;;;5034292;28;20426;-64
2022/12/02 05:17:15;;;;;;;28.05;13.57;;;7.20;70.40;;;;;;5035497;28;20468;-64
2022/12/02 05:19:40;;;;;;;29.65;13.20;;;7.20;70.40;;;;;;5034460;28;20060;-64
2022/12/02 05:22:06;;;;;;;25.85;13.18;;;7.20;70.40;;;;;;5044403;28;20138;-64
2022/12/02 05:24:34;;;;;;;30.80;13.50;;;7.20;70.40;;;;;;5038513;28;20028;-64
2022/12/02 05:26:59;;;;;;;28.02;13.43;;;7.20;70.30;;;;;;5050777;28;20032;-64
2022/12/02 05:29:25;;;;;;;27.55;13.45;;;7.20;70.20;;;;;;5032056;28;20033;-64
2022/12/02 05:31:51;;;;;;;25.75;12.63;;;7.20;70.10;;;;;;5041920;28;20052;-64
2022/12/02 05:34:17;;;;;;;29.17;15.07;;;7.20;70.10;;;;;;5038705;28;20108;-67
2022/12/02 05:36:43;;;;;;;21.80;12.45;;;7.20;70.10;;;;;;5048096;28;20521;-64
2022/12/02 05:39:09;;;;;;;26.85;14.25;;;7.20;70.00;;;;;;5034511;28;20104;-64
2022/12/02 05:41:34;;;;;;;26.47;13.57;;;7.20;70.00;;;;;;5038699;28;20022;-64
2022/12/02 05:44:21;;;;;;;27.97;14.20;;;7.20;70.00;;;;;;5033209;28;20362;-64
2022/12/02 05:46:48;;;;;;;28.45;13.80;;;7.20;70.00;;;;;;5049164;28;20025;-64
2022/12/02 05:49:22;;;;;;;26.58;13.77;;;7.20;70.00;;;;;;5033315;28;20036;-64
2022/12/02 05:51:56;;;;;;;23.13;12.75;;;7.20;69.90;;;;;;5036046;28;20034;-64
2022/12/02 05:54:22;;;;;;;27.27;14.10;;;7.20;69.90;;;;;;5035164;28;20017;-63
2022/12/02 05:56:48;;;;;;;25.53;13.60;;;7.10;69.90;;;;;;5046521;28;20033;-64
2022/12/02 05:59:19;;;;;;;30.80;14.15;;;7.10;69.90;;;;;;5033230;28;20042;-64
2022/12/02 06:01:50;;;;;;;27.73;12.73;;;7.10;69.90;;;;;;5033433;28;20103;-64
2022/12/02 06:04:25;;;;;;;24.83;13.93;;;7.10;70.00;;;;;;5044800;28;20280;-64
2022/12/02 06:06:53;;;;;;;30.00;15.02;;;7.10;70.00;;;;;;5049173;28;20390;-64
2022/12/02 06:09:25;;;;;;;26.77;14.10;;;7.10;70.10;;;;;;5035979;28;20068;-66
2022/12/02 06:11:51;;;;;;;;;;;7.10;70.10;;;;;;5030045;28;20133;-64
2022/12/02 06:14:21;;;;;;;26.40;13.02;;;7.10;70.20;;;;;;5035197;28;19974;-64
2022/12/02 06:17:01;;;;;;;29.67;14.57;;;7.00;70.20;;;;;;5042104;28;20033;-64
2022/12/02 06:19:45;;;;;;;25.98;13.20;;;7.00;70.20;;;;;;5046564;28;20026;-64
2022/12/02 06:22:21;;;;;;;25.63;12.87;;;7.00;70.30;;;;;;5033091;28;20032;-64
2022/12/02 06:24:47;;;;;;;27.50;14.90;;;7.00;70.40;;;;;;5047261;28;20116;-64
2022/12/02 06:27:15;;;;;;;28.08;14.05;;;7.00;70.50;;;;;;5040815;28;20029;-64
2022/12/02 06:29:55;;;;;;;29.95;14.70;;;7.00;70.60;;;;;;5046514;28;20350;-64
2022/12/02 06:32:23;;;;;;;23.58;12.63;;;7.00;70.60;;;;;;5031960;28;20025;-63
2022/12/02 06:34:51;;;;;;;26.27;13.55;;;6.90;70.60;;;;;;5040080;28;20029;-64
2022/12/02 06:37:29;;;;;;;27.58;13.98;;;6.90;70.70;;;;;;5043060;28;20037;-64
2022/12/02 06:39:57;;;;;;;27.48;13.85;;;6.90;70.80;;;;;;5048577;28;20052;-64
2022/12/02 06:42:34;;;;;;;27.07;14.20;;;6.90;70.80;;;;;;5057519;28;20108;-64
2022/12/02 06:45:26;;;;;;;27.10;14.68;;;6.90;70.90;;;;;;5023760;28;20030;-64
2022/12/02 06:48:00;;;;;;;26.77;13.95;;;6.90;70.90;;;;;;5045947;28;20029;-64
2022/12/02 06:50:36;;;;;;;28.33;14.33;;;6.90;70.90;;;;;;5044978;28;20071;-64
2022/12/02 06:53:11;;;;;;;28.65;14.30;;;6.90;70.90;;;;;;5046604;28;20033;-64
2022/12/02 06:55:37;;;;;;;30.00;14.53;;;6.90;71.00;;;;;;5050755;28;20029;-64
2022/12/02 06:58:33;;;;;;;28.97;14.23;;;6.80;71.00;;;;;;5025566;28;20058;-64
2022/12/02 07:01:17;;;;;;;27.95;13.93;;;6.90;71.10;;;;;;5030465;28;20461;-64
2022/12/02 07:04:08;;;;;;;30.02;15.77;;;6.80;71.10;;;;;;5065918;28;20037;-64
2022/12/02 07:06:48;;;;;;;30.70;14.85;;;6.80;71.10;;;;;;5003598;28;20125;-64
2022/12/02 07:09:40;;;;;;;30.90;14.57;;;6.80;71.20;;;;;;5012831;28;20041;-64
2022/12/02 07:12:19;;;;;;;29.55;14.05;;;6.90;71.30;;;;;;4979022;28;20090;-64
2022/12/02 07:14:49;;;;;;;32.33;14.17;;;6.80;71.20;;;;;;4997485;28;20045;-64
2022/12/02 07:17:31;;;;;;;31.88;14.57;;;6.80;71.30;;;;;;4994373;28;20042;-64
2022/12/02 07:20:05;;;;;;;31.27;14.73;;;6.80;71.50;;;;;;4983622;28;20114;-63
2022/12/02 07:22:55;;;;;;;29.57;13.13;;;6.80;71.60;;;;;;4988597;28;20034;-64
2022/12/02 07:25:45;;;;;;;26.83;14.13;;;6.90;71.70;;;;;;5001045;28;20046;-63
2022/12/02 07:28:23;;;;;;;27.57;15.07;;;6.90;71.70;;;;;;4995671;28;20034;-66
2022/12/02 07:30:59;;;;;;;28.67;13.63;;;6.90;71.70;;;;;;4988204;28;20129;-65
2022/12/02 07:33:25;;;;;;;28.07;14.10;;;7.00;71.70;;;;;;4995576;28;20037;-65
2022/12/02 07:35:51;;;;;;;26.42;13.65;;;6.90;71.60;;;;;;4967763;28;20027;-67
2022/12/02 07:38:16;;;;;;;29.08;13.15;;;7.00;71.80;;;;;;4993660;28;20141;-67
2022/12/02 07:40:42;;;;;;;33.37;15.73;;;6.90;71.80;;;;;;4965424;28;20042;-66
2022/12/02 07:43:08;;;;;;;33.03;14.73;;;6.90;72.00;;;;;;5005014;28;20137;-67
2022/12/02 07:45:34;;;;;;;29.20;13.67;;;6.90;72.00;;;;;;5045214;28;21366;-66
2022/12/02 07:48:00;;;;;;;32.47;15.27;;;6.80;72.10;;;;;;5033819;28;20032;-66
2022/12/02 07:50:26;;;;;;;29.40;14.00;;;6.80;72.20;;;;;;5056701;28;20061;-67
2022/12/02 07:52:51;;;;;;;30.67;14.80;;;6.80;72.30;;;;;;5034791;28;20021;-64
2022/12/02 07:55:18;;;;;;;26.10;13.33;;;6.80;72.80;;;;;;5047184;28;20387;-66
2022/12/02 07:57:43;;;;;;;30.97;13.87;;;6.80;72.50;;;;;;5037102;28;20025;-66
2022/12/02 08:00:10;;;;;;;29.57;15.73;;;6.80;72.60;;;;;;5047445;28;20356;-66
2022/12/02 08:02:39;;;;;;;27.40;13.23;;;6.80;72.70;;;;;;5037815;28;20060;-68
2022/12/02 08:05:06;;;;;;;29.73;13.90;;;6.70;72.80;;;;;;5047251;28;20095;-68
2022/12/02 08:07:31;;;;;;;29.77;14.43;;;6.70;72.80;;;;;;5034825;28;20116;-67
2022/12/02 08:09:57;;;;;;;31.37;14.10;;;6.70;73.60;;;;;;5037265;28;20116;-67
2022/12/02 08:12:23;;;;;;;31.30;15.23;;;6.70;73.00;;;;;;5037057;28;20492;-66
2022/12/02 08:14:49;;;;;;;27.97;13.90;;;6.70;73.10;;;;;;5042943;28;20025;-67
2022/12/02 08:17:14;;;;;;;31.03;14.07;;;6.70;73.10;;;;;;5035716;28;20065;-67
2022/12/02 08:19:40;;;;;;;31.63;14.90;;;6.70;73.20;;;;;;5021161;28;20407;-66
2022/12/02 08:22:06;;;;;;;30.45;15.50;;;6.70;73.20;;;;;;5036906;28;20029;-66
2022/12/02 08:24:33;;;;;;;30.20;15.03;;;6.70;73.20;;;;;;5034891;28;20026;-65
2022/12/02 08:26:58;;;;;;;34.87;16.77;;;6.70;73.20;;;;;;5038007;28;20344;-66
2022/12/02 08:29:24;;;;;;;29.40;14.73;;;6.70;73.20;;;;;;5039482;28;20194;-66
2022/12/02 08:31:50;;;;;;;34.35;14.73;;;6.70;73.20;;;;;;5030417;28;20453;-66
2022/12/02 08:34:16;;;;;;;33.50;14.70;;;6.70;73.20;;;;;;5024354;28;20052;-66
2022/12/02 08:36:41;;;;;;;35.23;15.07;;;6.60;73.20;;;;;;5036150;28;20029;-67
2022/12/02 08:39:07;;;;;;;32.78;15.93;;;6.70;73.20;;;;;;5034819;28;20029;-67
2022/12/02 08:41:34;;;;;;;30.73;15.73;;;6.70;73.20;;;;;;5036275;28;20104;-64
2022/12/02 08:43:59;;;;;;;36.07;16.50;;;6.70;73.30;;;;;;5035284;28;20465;-64
2022/12/02 08:46:26;;;;;;;32.60;16.63;;;6.70;73.20;;;;;;5034565;28;20022;-64
2022/12/02 08:48:53;;;;;;;35.00;16.17;;;6.60;73.20;;;;;;5034470;28;20033;-64
2022/12/02 08:51:19;;;;;;;34.37;15.37;;;6.60;73.20;;;;;;5036230;28;20045;-67
2022/12/02 08:53:45;;;;;;;31.30;15.57;;;6.60;73.20;;;;;;5034942;28;20083;-67
2022/12/02 08:56:10;;;;;;;33.90;17.15;;;6.60;73.20;;;;;;5035924;28;20350;-69
2022/12/02 08:58:36;;;;;;;32.70;15.43;;;6.60;73.20;;;;;;5035442;28;20043;-65
2022/12/02 09:01:02;;;;;;;34.67;15.63;;;6.60;73.20;;;;;;5033800;28;20454;-65
2022/12/02 09:03:28;;;;;;;34.83;17.07;;;6.60;73.80;;;;;;5035671;28;20032;-67
2022/12/02 09:05:53;;;;;;;37.93;17.33;;;6.70;73.30;;;;;;5034993;28;20027;-65
2022/12/02 09:08:19;;;;;;;34.03;16.23;;;6.70;73.30;;;;;;5034077;28;20029;-68
2022/12/02 09:10:45;;;;;;;36.13;16.80;;;6.70;73.20;;;;;;5034592;28;20141;-65
2022/12/02 09:13:10;;;;;;;36.63;16.15;;;6.70;73.20;;;;;;5035404;28;20025;-65
2022/12/02 09:15:36;;;;;;;32.47;14.82;;;6.70;73.20;;;;;;5048372;28;20025;-65
2022/12/02 09:18:02;;;;;;;33.03;16.87;;;6.70;73.10;;;;;;5051593;28;20120;-66
2022/12/02 09:20:27;;;;;;;36.90;15.87;;;6.70;73.00;;;;;;5039987;28;20377;-66
2022/12/02 09:22:53;;;;;;;31.70;15.05;;;6.70;73.00;;;;;;5068010;28;20033;-65
2022/12/02 09:25:19;;;;;;;36.13;15.55;;;6.70;73.00;;;;;;5057655;28;20035;-65
2022/12/02 09:27:44;;;;;;;38.90;18.30;;;6.70;72.90;;;;;;5050908;28;20446;-65
2022/12/02 09:30:10;;;;;;;35.90;18.00;;;6.80;73.00;;;;;;5044037;28;20013;-66
2022/12/02 09:32:36;;;;;;;35.10;16.43;;;6.80;72.90;;;;;;5038157;28;20083;-66
2022/12/02 09:35:02;;;;;;;38.15;17.75;;;6.80;72.80;;;;;;5039598;28;20028;-66
2022/12/02 09:37:28;;;;;;;34.07;16.27;;;6.80;72.70;;;;;;5033946;28;20029;-66
2022/12/02 09:39:53;;;;;;;35.53;16.03;;;6.80;72.70;;;;;;5031385;28;20030;-66
2022/12/02 09:42:20;;;;;;;37.17;16.07;;;6.80;72.60;;;;;;5045688;28;20501;-65
2022/12/02 09:44:47;;;;;;;34.67;15.30;;;6.80;72.50;;;;;;5039899;28;20107;-66
2022/12/02 09:47:14;;;;;;;31.97;15.23;;;6.80;72.50;;;;;;5045200;28;20446;-65
2022/12/02 09:49:41;;;;;;;34.37;16.10;;;6.80;72.30;;;;;;5039576;28;20029;-66
2022/12/02 09:52:14;;;;;;;31.57;15.30;;;6.80;72.20;;;;;;5031296;28;20053;-66
2022/12/02 09:54:41;;;;;;;32.60;15.50;;;6.90;72.20;;;;;;5036634;28;20075;-66
2022/12/02 09:57:15;;;;;;;31.20;15.33;;;6.90;72.20;;;;;;5036343;28;20094;-65
2022/12/02 09:59:42;;;;;;;33.87;14.33;;;6.90;72.00;;;;;;5017059;28;20131;-66
2022/12/02 10:02:20;;;;;;;32.55;15.85;;;6.90;71.90;;;;;;5023745;28;20033;-66
2022/12/02 10:04:45;;;;;;;33.67;15.10;;;7.00;71.80;;;;;;5045802;28;20037;-65
2022/12/02 10:07:11;;;;;;;33.30;14.90;;;7.00;71.80;;;;;;5031829;28;20370;-66
2022/12/02 10:09:36;;;;;;;32.03;15.33;;;7.00;71.80;;;;;;5033058;28;20449;-66
2022/12/02 10:12:02;;;;;;;29.70;14.53;;;7.00;71.70;;;;;;5024838;28;20159;-66
2022/12/02 10:14:28;;;;;;;28.27;14.50;;;7.00;71.70;;;;;;5032451;28;20084;-67
2022/12/02 10:16:55;;;;;;;31.33;14.20;;;7.10;71.60;;;;;;5030906;28;20022;-66
2022/12/02 10:19:21;;;;;;;33.20;14.45;;;7.10;71.50;;;;;;5036097;28;20176;-66
2022/12/02 10:21:47;;;;;;;32.13;15.60;;;7.10;71.40;;;;;;5047464;28;20091;-65
2022/12/02 10:24:12;;;;;;;33.67;14.73;;;7.10;71.10;;;;;;5047139;28;20033;-67
2022/12/02 10:26:49;;;;;;;31.07;13.60;;;7.00;71.00;;;;;;5042067;28;20035;-65
2022/12/02 10:29:27;;;;;;;35.37;15.37;;;7.10;71.10;;;;;;5033787;28;20358;-65
2022/12/02 10:31:58;;;;;;;32.67;16.43;;;7.10;71.00;;;;;;5021693;28;20393;-65
2022/12/02 10:34:26;;;;;;;30.42;13.25;;;7.10;70.90;;;;;;5058691;28;20116;-65
2022/12/02 10:36:53;;;;;;;33.57;15.87;;;7.10;70.80;;;;;;5048005;28;20367;-66
2022/12/02 10:39:34;;;;;;;35.63;15.80;;;7.10;70.80;;;;;;5033962;28;20050;-66
2022/12/02 10:42:02;;;;;;;34.95;15.23;;;7.10;70.70;;;;;;5033161;28;20025;-66
2022/12/02 10:44:29;;;;;;;33.78;15.10;;;7.10;70.70;;;;;;5034436;28;20342;-66
2022/12/02 10:47:22;;;;;;;30.77;15.55;;;7.10;70.70;;;;;;5033199;28;20462;-66
2022/12/02 10:49:52;;;;;;;38.53;14.98;;;7.10;70.60;;;;;;5035248;28;20026;-66
2022/12/02 10:52:23;;;;;;;29.30;13.88;;;7.00;70.60;;;;;;5034705;28;20017;-66
2022/12/02 10:54:52;;;;;;;35.78;16.05;;;7.00;70.60;;;;;;5033553;28;20029;-66
2022/12/02 10:57:24;;;;;;;32.00;14.43;;;6.90;70.60;;;;;;5032907;28;20048;-66
2022/12/02 10:59:51;;;;;;;34.10;14.83;;;6.90;70.60;;;;;;5017181;28;20029;-65
2022/12/02 11:02:44;;;;;;;32.10;13.37;;;6.90;70.60;;;;;;5034402;28;20033;-65
2022/12/02 11:05:22;;;;;;;28.60;14.37;;;6.90;70.50;;;;;;5033222;28;20025;-66
2022/12/02 11:08:02;;;;;;;28.57;13.23;;;6.90;70.50;;;;;;5032982;28;20036;-66
2022/12/02 11:10:38;;;;;;;30.43;12.97;;;6.90;70.50;;;;;;5028572;28;20423;-65
2022/12/02 11:13:12;;;;;;;30.00;13.63;;;6.90;70.50;;;;;;5045530;28;20099;-66
2022/12/02 11:15:42;;;;;;;30.60;14.17;;;6.90;70.40;;;;;;5036472;28;20052;-65
2022/12/02 11:18:10;;;;;;;31.13;14.47;;;6.80;70.30;;;;;;5030197;28;20036;-64
2022/12/02 11:20:46;;;;;;;34.87;14.67;;;6.90;70.30;;;;;;5033904;28;20060;-65
2022/12/02 11:23:25;;;;;;;28.67;12.87;;;6.90;70.20;;;;;;5034019;28;20032;-65
2022/12/02 11:25:58;;;;;;;26.67;12.77;;;6.90;70.00;;;;;;5026155;28;20037;-65
2022/12/02 11:28:26;;;;;;;31.95;12.80;;;6.90;70.00;;;;;;5032383;28;20040;-65
2022/12/02 11:31:13;;;;;;;31.07;13.33;;;6.90;69.90;;;;;;5030684;28;20435;-65
2022/12/02 11:33:47;;;;;;;32.17;14.20;;;6.80;69.80;;;;;;5023234;28;20036;-66
2022/12/02 11:36:18;;;;;;;35.60;15.53;;;6.80;69.90;;;;;;5014703;28;20408;-65
2022/12/02 11:38:47;;;;;;;31.08;14.15;;;6.80;70.00;;;;;;5031473;28;20568;-66
2022/12/02 11:41:14;;;;;;;30.33;13.73;;;6.80;70.00;;;;;;5030530;28;20026;-66
2022/12/02 11:43:50;;;;;;;31.10;14.17;;;6.80;70.00;;;;;;5034556;28;20362;-66
2022/12/02 11:46:44;;;;;;;27.10;12.60;;;6.80;69.90;;;;;;5035164;28;20061;-66
2022/12/02 11:49:32;;;;;;;32.03;13.67;;;6.80;69.90;;;;;;5025876;28;20033;-66
2022/12/02 11:52:12;;;;;;;32.07;13.33;;;6.80;69.90;;;;;;5036470;28;20018;-65
2022/12/02 11:54:56;;;;;;;36.37;14.77;;;6.80;69.90;;;;;;5043885;28;20036;-66
2022/12/02 11:57:30;;;;;;;35.87;15.00;;;6.80;69.90;;;;;;5039993;28;20034;-65
2022/12/02 11:59:57;;;;;;;33.73;13.67;;;6.90;69.80;;;;;;5031806;28;20030;-65
2022/12/02 12:02:24;;;;;;;30.20;12.60;;;6.90;69.70;;;;;;5035740;28;20030;-66
2022/12/02 12:05:01;;;;;;;31.67;13.20;;;6.90;69.70;;;;;;5045666;28;20038;-65
2022/12/02 12:07:46;;;;;;;31.97;14.07;;;6.90;69.60;;;;;;5034552;28;20029;-66
2022/12/02 12:10:32;;;;;;;33.67;13.80;;;7.00;69.50;;;;;;5036566;28;20443;-65
2022/12/02 12:13:11;;;;;;;36.53;13.50;;;7.10;69.30;;;;;;5035876;28;20116;-66
2022/12/02 12:16:06;;;;;;;35.60;14.53;;;7.10;69.20;;;;;;5030317;28;20029;-66
2022/12/02 12:18:36;;;;;;;35.73;14.13;;;7.10;69.10;;;;;;5007988;28;20041;-65
2022/12/02 12:21:02;;;;;;;36.03;14.10;;;7.10;69.20;;;;;;5044157;28;20136;-66
2022/12/02 12:23:31;;;;;;;27.90;12.90;;;7.10;69.10;;;;;;5040727;28;20112;-66
2022/12/02 12:25:57;;;;;;;27.83;12.93;;;7.20;69.70;;;;;;5036524;28;20389;-64
2022/12/02 12:28:23;;;;;;;29.30;12.83;;;7.20;69.00;;;;;;5036710;28;20098;-65
2022/12/02 12:30:49;;;;;;;25.47;12.40;;;7.20;69.00;;;;;;5043483;28;20029;-64
2022/12/02 12:33:14;;;;;;;30.80;12.93;;;7.20;68.90;;;;;;5038933;28;20033;-64
2022/12/02 12:35:40;;;;;;;29.98;13.55;;;7.20;68.80;;;;;;5038073;28;20057;-65
2022/12/02 12:38:06;;;;;;;27.87;12.67;;;7.20;68.70;;;;;;5042798;28;20338;-65
2022/12/02 12:40:31;;;;;;;29.50;12.43;;;7.20;68.60;;;;;;5031364;28;20034;-64
2022/12/02 12:42:57;;;;;;;28.90;11.90;;;7.30;68.70;;;;;;5035834;28;20029;-64
2022/12/02 12:45:22;;;;;;;28.27;12.30;;;7.20;68.70;;;;;;5041983;28;20037;-66
2022/12/02 12:47:49;;;;;;;27.77;12.57;;;7.30;68.70;;;;;;5043187;28;20041;-65
2022/12/02 12:50:15;;;;;;;28.20;12.30;;;7.30;68.70;;;;;;5044459;28;20055;-65
2022/12/02 12:52:40;;;;;;;26.77;12.40;;;7.30;68.70;;;;;;5045949;28;20406;-65